sensor_id;sensor_type;location;lat;lon;timestamp;P1;durP1;ratioP1;P2;durP2;ratioP2
18592;SDS011;9426;54.118;17.948;2023-02-01T00:00:03;12.40;;;2.40;;
18592;SDS011;9426;54.118;17.948;2023-02-01T00:05:28;5.40;;;1.30;;
18592;SDS011;9426;54.118;17.948;2023-02-01T00:10:57;10.73;;;1.93;;
18592;SDS011;9426;54.118;17.948;2023-02-01T00:16:22;14.67;;;2.50;;
18592;SDS011;9426;54.118;17.948;2023-02-01T00:21:49;21.37;;;2.60;;
18592;SDS011;9426;54.118;17.948;2023-02-01T00:27:13;18.03;;;3.00;;
18592;SDS011;9426;54.118;17.948;2023-02-01T00:32:41;18.30;;;2.33;;
18592;SDS011;9426;54.118;17.948;2023-02-01T00:38:06;17.80;;;2.67;;
18592;SDS011;9426;54.118;17.948;2023-02-01T00:43:30;15.73;;;2.53;;
18592;SDS011;9426;54.118;17.948;2023-02-01T00:48:54;26.53;;;3.00;;
18592;SDS011;9426;54.118;17.948;2023-02-01T00:54:21;16.10;;;2.40;;
18592;SDS011;9426;54.118;17.948;2023-02-01T00:59:45;16.17;;;2.43;;
18592;SDS011;9426;54.118;17.948;2023-02-01T01:05:10;16.83;;;2.87;;
18592;SDS011;9426;54.118;17.948;2023-02-01T01:10:35;26.63;;;3.07;;
18592;SDS011;9426;54.118;17.948;2023-02-01T01:15:59;19.47;;;2.90;;
18592;SDS011;9426;54.118;17.948;2023-02-01T01:21:24;20.90;;;3.70;;
18592;SDS011;9426;54.118;17.948;2023-02-01T01:26:50;18.90;;;2.07;;
18592;SDS011;9426;54.118;17.948;2023-02-01T01:32:14;29.17;;;5.43;;
18592;SDS011;9426;54.118;17.948;2023-02-01T01:37:38;26.47;;;3.80;;
18592;SDS011;9426;54.118;17.948;2023-02-01T01:43:05;27.50;;;3.30;;
18592;SDS011;9426;54.118;17.948;2023-02-01T01:48:36;47.27;;;4.97;;
18592;SDS011;9426;54.118;17.948;2023-02-01T01:54:01;24.23;;;3.60;;
18592;SDS011;9426;54.118;17.948;2023-02-01T01:59:30;32.50;;;4.20;;
18592;SDS011;9426;54.118;17.948;2023-02-01T02:04:55;28.73;;;3.90;;
18592;SDS011;9426;54.118;17.948;2023-02-01T02:10:19;34.93;;;4.27;;
18592;SDS011;9426;54.118;17.948;2023-02-01T02:16:12;23.60;;;3.60;;
18592;SDS011;9426;54.118;17.948;2023-02-01T02:21:52;22.97;;;3.57;;
18592;SDS011;9426;54.118;17.948;2023-02-01T02:27:30;28.50;;;3.80;;
18592;SDS011;9426;54.118;17.948;2023-02-01T02:39:16;34.10;;;4.43;;
18592;SDS011;9426;54.118;17.948;2023-02-01T02:44:49;37.53;;;3.80;;
18592;SDS011;9426;54.118;17.948;2023-02-01T02:50:41;19.27;;;3.53;;
18592;SDS011;9426;54.118;17.948;2023-02-01T02:56:25;22.77;;;3.80;;
18592;SDS011;9426;54.118;17.948;2023-02-01T03:02:08;21.73;;;3.33;;
18592;SDS011;9426;54.118;17.948;2023-02-01T03:07:55;25.30;;;3.87;;
18592;SDS011;9426;54.118;17.948;2023-02-01T03:13:33;33.93;;;4.10;;
18592;SDS011;9426;54.118;17.948;2023-02-01T03:19:01;39.20;;;4.97;;
18592;SDS011;9426;54.118;17.948;2023-02-01T03:24:31;26.40;;;3.37;;
18592;SDS011;9426;54.118;17.948;2023-02-01T03:30:01;27.87;;;4.07;;
18592;SDS011;9426;54.118;17.948;2023-02-01T03:35:30;20.87;;;2.93;;
18592;SDS011;9426;54.118;17.948;2023-02-01T03:41:03;28.17;;;3.67;;
18592;SDS011;9426;54.118;17.948;2023-02-01T03:46:34;15.27;;;2.63;;
18592;SDS011;9426;54.118;17.948;2023-02-01T03:52:01;20.63;;;2.40;;
18592;SDS011;9426;54.118;17.948;2023-02-01T03:57:29;13.50;;;2.67;;
18592;SDS011;9426;54.118;17.948;2023-02-01T04:02:57;8.03;;;1.93;;
18592;SDS011;9426;54.118;17.948;2023-02-01T04:08:21;12.23;;;2.37;;
18592;SDS011;9426;54.118;17.948;2023-02-01T04:13:47;16.53;;;2.53;;
18592;SDS011;9426;54.118;17.948;2023-02-01T04:19:11;10.23;;;2.97;;
18592;SDS011;9426;54.118;17.948;2023-02-01T04:24:34;13.37;;;2.53;;
18592;SDS011;9426;54.118;17.948;2023-02-01T04:30:00;9.27;;;1.60;;
18592;SDS011;9426;54.118;17.948;2023-02-01T04:35:24;12.87;;;2.63;;
18592;SDS011;9426;54.118;17.948;2023-02-01T04:40:47;6.90;;;1.43;;
18592;SDS011;9426;54.118;17.948;2023-02-01T04:46:13;4.70;;;1.30;;
18592;SDS011;9426;54.118;17.948;2023-02-01T04:51:37;3.30;;;0.90;;
18592;SDS011;9426;54.118;17.948;2023-02-01T04:57:01;4.80;;;1.00;;
18592;SDS011;9426;54.118;17.948;2023-02-01T05:02:26;7.97;;;1.30;;
18592;SDS011;9426;54.118;17.948;2023-02-01T05:07:50;9.00;;;1.57;;
18592;SDS011;9426;54.118;17.948;2023-02-01T05:13:13;14.10;;;1.90;;
18592;SDS011;9426;54.118;17.948;2023-02-01T05:18:56;25.87;;;2.77;;
18592;SDS011;9426;54.118;17.948;2023-02-01T05:24:19;26.57;;;3.30;;
18592;SDS011;9426;54.118;17.948;2023-02-01T05:29:43;18.10;;;2.80;;
18592;SDS011;9426;54.118;17.948;2023-02-01T05:35:09;24.17;;;3.33;;
18592;SDS011;9426;54.118;17.948;2023-02-01T05:40:33;14.17;;;2.03;;
18592;SDS011;9426;54.118;17.948;2023-02-01T05:45:57;19.63;;;3.27;;
18592;SDS011;9426;54.118;17.948;2023-02-01T05:51:22;23.90;;;3.07;;
18592;SDS011;9426;54.118;17.948;2023-02-01T05:56:45;27.07;;;3.13;;
18592;SDS011;9426;54.118;17.948;2023-02-01T06:02:09;23.40;;;3.10;;
18592;SDS011;9426;54.118;17.948;2023-02-01T06:07:34;26.73;;;3.73;;
18592;SDS011;9426;54.118;17.948;2023-02-01T06:12:58;17.23;;;2.27;;
18592;SDS011;9426;54.118;17.948;2023-02-01T06:18:22;21.10;;;3.03;;
18592;SDS011;9426;54.118;17.948;2023-02-01T06:23:47;19.53;;;2.83;;
18592;SDS011;9426;54.118;17.948;2023-02-01T06:29:11;27.03;;;3.43;;
18592;SDS011;9426;54.118;17.948;2023-02-01T06:34:35;19.80;;;3.57;;
18592;SDS011;9426;54.118;17.948;2023-02-01T06:40:02;18.50;;;2.93;;
18592;SDS011;9426;54.118;17.948;2023-02-01T06:45:27;16.10;;;2.37;;
18592;SDS011;9426;54.118;17.948;2023-02-01T06:50:50;17.00;;;2.70;;
18592;SDS011;9426;54.118;17.948;2023-02-01T06:56:16;16.60;;;2.53;;
18592;SDS011;9426;54.118;17.948;2023-02-01T07:01:40;11.03;;;2.27;;
18592;SDS011;9426;54.118;17.948;2023-02-01T07:07:04;11.80;;;2.33;;
18592;SDS011;9426;54.118;17.948;2023-02-01T07:12:29;8.90;;;1.80;;
18592;SDS011;9426;54.118;17.948;2023-02-01T07:17:53;11.73;;;2.60;;
18592;SDS011;9426;54.118;17.948;2023-02-01T07:23:18;9.13;;;1.97;;
18592;SDS011;9426;54.118;17.948;2023-02-01T07:28:43;13.33;;;2.30;;
18592;SDS011;9426;54.118;17.948;2023-02-01T07:34:08;23.80;;;3.50;;
18592;SDS011;9426;54.118;17.948;2023-02-01T07:39:31;30.93;;;4.17;;
18592;SDS011;9426;54.118;17.948;2023-02-01T07:44:57;29.47;;;3.97;;
18592;SDS011;9426;54.118;17.948;2023-02-01T07:50:35;37.43;;;5.67;;
18592;SDS011;9426;54.118;17.948;2023-02-01T07:55:59;29.87;;;4.13;;
18592;SDS011;9426;54.118;17.948;2023-02-01T08:01:25;30.17;;;3.60;;
18592;SDS011;9426;54.118;17.948;2023-02-01T08:06:50;14.70;;;2.30;;
18592;SDS011;9426;54.118;17.948;2023-02-01T08:12:14;22.50;;;3.13;;
18592;SDS011;9426;54.118;17.948;2023-02-01T08:17:39;16.73;;;3.27;;
18592;SDS011;9426;54.118;17.948;2023-02-01T08:23:07;18.67;;;3.40;;
18592;SDS011;9426;54.118;17.948;2023-02-01T08:28:31;28.50;;;4.57;;
18592;SDS011;9426;54.118;17.948;2023-02-01T08:33:58;31.83;;;4.47;;
18592;SDS011;9426;54.118;17.948;2023-02-01T08:39:24;21.60;;;3.73;;
18592;SDS011;9426;54.118;17.948;2023-02-01T08:44:48;19.47;;;2.80;;
18592;SDS011;9426;54.118;17.948;2023-02-01T08:50:14;20.17;;;3.80;;
18592;SDS011;9426;54.118;17.948;2023-02-01T08:55:39;19.13;;;3.20;;
18592;SDS011;9426;54.118;17.948;2023-02-01T09:01:04;21.27;;;3.53;;
18592;SDS011;9426;54.118;17.948;2023-02-01T09:06:29;21.67;;;3.80;;
18592;SDS011;9426;54.118;17.948;2023-02-01T09:11:53;32.50;;;4.73;;
18592;SDS011;9426;54.118;17.948;2023-02-01T09:17:17;34.97;;;4.43;;
18592;SDS011;9426;54.118;17.948;2023-02-01T09:22:43;34.57;;;4.23;;
18592;SDS011;9426;54.118;17.948;2023-02-01T09:28:07;31.47;;;4.37;;
18592;SDS011;9426;54.118;17.948;2023-02-01T09:33:31;34.63;;;4.23;;
18592;SDS011;9426;54.118;17.948;2023-02-01T09:38:56;25.43;;;3.70;;
18592;SDS011;9426;54.118;17.948;2023-02-01T09:44:23;40.50;;;11.20;;
18592;SDS011;9426;54.118;17.948;2023-02-01T09:50:05;21.30;;;2.63;;
18592;SDS011;9426;54.118;17.948;2023-02-01T09:55:38;17.33;;;3.87;;
18592;SDS011;9426;54.118;17.948;2023-02-01T10:01:08;27.10;;;3.87;;
18592;SDS011;9426;54.118;17.948;2023-02-01T10:06:38;20.57;;;4.10;;
18592;SDS011;9426;54.118;17.948;2023-02-01T10:12:22;18.13;;;2.70;;
18592;SDS011;9426;54.118;17.948;2023-02-01T10:24:06;11.17;;;2.20;;
18592;SDS011;9426;54.118;17.948;2023-02-01T10:29:42;14.23;;;2.47;;
18592;SDS011;9426;54.118;17.948;2023-02-01T10:35:09;7.57;;;1.90;;
18592;SDS011;9426;54.118;17.948;2023-02-01T10:40:38;15.93;;;2.50;;
18592;SDS011;9426;54.118;17.948;2023-02-01T10:46:04;13.97;;;2.17;;
18592;SDS011;9426;54.118;17.948;2023-02-01T10:51:30;17.73;;;2.87;;
18592;SDS011;9426;54.118;17.948;2023-02-01T10:57:07;21.43;;;2.97;;
18592;SDS011;9426;54.118;17.948;2023-02-01T11:02:33;14.53;;;3.60;;
18592;SDS011;9426;54.118;17.948;2023-02-01T11:07:58;18.23;;;4.50;;
18592;SDS011;9426;54.118;17.948;2023-02-01T11:13:21;12.90;;;3.30;;
18592;SDS011;9426;54.118;17.948;2023-02-01T11:18:54;23.40;;;4.17;;
18592;SDS011;9426;54.118;17.948;2023-02-01T11:24:19;17.23;;;2.97;;
18592;SDS011;9426;54.118;17.948;2023-02-01T11:29:47;17.07;;;3.00;;
18592;SDS011;9426;54.118;17.948;2023-02-01T11:35:16;14.30;;;2.60;;
18592;SDS011;9426;54.118;17.948;2023-02-01T11:40:42;22.87;;;3.53;;
18592;SDS011;9426;54.118;17.948;2023-02-01T11:46:08;13.83;;;2.93;;
18592;SDS011;9426;54.118;17.948;2023-02-01T11:51:49;17.37;;;3.90;;
18592;SDS011;9426;54.118;17.948;2023-02-01T11:57:31;16.63;;;2.77;;
18592;SDS011;9426;54.118;17.948;2023-02-01T12:15:17;12.20;;;2.60;;
18592;SDS011;9426;54.118;17.948;2023-02-01T12:21:06;12.87;;;2.30;;
18592;SDS011;9426;54.118;17.948;2023-02-01T12:26:50;7.67;;;2.23;;
18592;SDS011;9426;54.118;17.948;2023-02-01T12:32:25;9.30;;;2.03;;
18592;SDS011;9426;54.118;17.948;2023-02-01T12:38:02;13.67;;;2.57;;
18592;SDS011;9426;54.118;17.948;2023-02-01T12:43:42;16.90;;;2.60;;
18592;SDS011;9426;54.118;17.948;2023-02-01T12:49:10;8.60;;;2.70;;
18592;SDS011;9426;54.118;17.948;2023-02-01T12:54:40;13.77;;;2.80;;
18592;SDS011;9426;54.118;17.948;2023-02-01T13:00:13;23.70;;;2.60;;
18592;SDS011;9426;54.118;17.948;2023-02-01T13:05:46;15.67;;;3.40;;
18592;SDS011;9426;54.118;17.948;2023-02-01T13:11:15;18.03;;;2.70;;
18592;SDS011;9426;54.118;17.948;2023-02-01T13:16:45;12.63;;;2.87;;
18592;SDS011;9426;54.118;17.948;2023-02-01T13:22:11;17.97;;;3.13;;
18592;SDS011;9426;54.118;17.948;2023-02-01T13:27:38;11.40;;;2.07;;
18592;SDS011;9426;54.118;17.948;2023-02-01T13:33:11;14.33;;;2.20;;
18592;SDS011;9426;54.118;17.948;2023-02-01T13:44:44;18.30;;;2.87;;
18592;SDS011;9426;54.118;17.948;2023-02-01T13:50:18;17.73;;;2.23;;
18592;SDS011;9426;54.118;17.948;2023-02-01T13:55:45;13.43;;;2.60;;
18592;SDS011;9426;54.118;17.948;2023-02-01T14:01:32;10.03;;;2.20;;
18592;SDS011;9426;54.118;17.948;2023-02-01T14:07:00;18.20;;;2.90;;
18592;SDS011;9426;54.118;17.948;2023-02-01T14:24:24;15.27;;;2.43;;
18592;SDS011;9426;54.118;17.948;2023-02-01T14:29:50;13.07;;;2.30;;
18592;SDS011;9426;54.118;17.948;2023-02-01T14:35:19;18.57;;;3.93;;
18592;SDS011;9426;54.118;17.948;2023-02-01T14:40:48;13.63;;;2.67;;
18592;SDS011;9426;54.118;17.948;2023-02-01T14:46:11;17.67;;;2.77;;
18592;SDS011;9426;54.118;17.948;2023-02-01T14:51:35;13.90;;;2.80;;
18592;SDS011;9426;54.118;17.948;2023-02-01T14:57:01;12.93;;;1.90;;
18592;SDS011;9426;54.118;17.948;2023-02-01T15:02:26;14.50;;;2.17;;
18592;SDS011;9426;54.118;17.948;2023-02-01T15:07:51;13.27;;;2.70;;
18592;SDS011;9426;54.118;17.948;2023-02-01T15:13:21;16.73;;;3.43;;
18592;SDS011;9426;54.118;17.948;2023-02-01T15:18:46;16.80;;;3.00;;
18592;SDS011;9426;54.118;17.948;2023-02-01T15:24:10;7.70;;;1.90;;
18592;SDS011;9426;54.118;17.948;2023-02-01T15:29:35;11.83;;;2.60;;
18592;SDS011;9426;54.118;17.948;2023-02-01T15:34:59;12.20;;;1.90;;
18592;SDS011;9426;54.118;17.948;2023-02-01T15:40:24;11.47;;;2.13;;
18592;SDS011;9426;54.118;17.948;2023-02-01T15:45:49;20.00;;;2.97;;
18592;SDS011;9426;54.118;17.948;2023-02-01T15:51:14;17.53;;;4.43;;
18592;SDS011;9426;54.118;17.948;2023-02-01T15:56:40;15.00;;;2.87;;
18592;SDS011;9426;54.118;17.948;2023-02-01T16:07:56;9.73;;;2.80;;
18592;SDS011;9426;54.118;17.948;2023-02-01T16:13:25;16.37;;;2.60;;
18592;SDS011;9426;54.118;17.948;2023-02-01T16:18:50;12.70;;;2.90;;
18592;SDS011;9426;54.118;17.948;2023-02-01T16:24:14;14.97;;;2.67;;
18592;SDS011;9426;54.118;17.948;2023-02-01T16:29:38;17.87;;;2.60;;
18592;SDS011;9426;54.118;17.948;2023-02-01T16:35:05;15.87;;;2.20;;
18592;SDS011;9426;54.118;17.948;2023-02-01T16:40:37;14.50;;;3.03;;
18592;SDS011;9426;54.118;17.948;2023-02-01T16:46:01;17.00;;;4.33;;
18592;SDS011;9426;54.118;17.948;2023-02-01T16:51:27;20.60;;;4.87;;
18592;SDS011;9426;54.118;17.948;2023-02-01T16:56:54;24.37;;;4.13;;
18592;SDS011;9426;54.118;17.948;2023-02-01T17:02:18;15.10;;;3.30;;
18592;SDS011;9426;54.118;17.948;2023-02-01T17:07:44;17.47;;;3.90;;
18592;SDS011;9426;54.118;17.948;2023-02-01T17:13:11;16.30;;;3.70;;
18592;SDS011;9426;54.118;17.948;2023-02-01T17:18:37;21.33;;;3.50;;
18592;SDS011;9426;54.118;17.948;2023-02-01T17:24:03;25.83;;;3.63;;
18592;SDS011;9426;54.118;17.948;2023-02-01T17:29:27;18.33;;;4.17;;
18592;SDS011;9426;54.118;17.948;2023-02-01T17:34:51;14.83;;;2.80;;
18592;SDS011;9426;54.118;17.948;2023-02-01T17:40:16;22.20;;;3.60;;
18592;SDS011;9426;54.118;17.948;2023-02-01T17:45:42;18.80;;;4.17;;
18592;SDS011;9426;54.118;17.948;2023-02-01T17:51:20;26.00;;;5.50;;
18592;SDS011;9426;54.118;17.948;2023-02-01T17:56:49;14.10;;;3.50;;
18592;SDS011;9426;54.118;17.948;2023-02-01T18:02:17;19.27;;;4.63;;
18592;SDS011;9426;54.118;17.948;2023-02-01T18:07:43;21.43;;;5.77;;
18592;SDS011;9426;54.118;17.948;2023-02-01T18:13:09;30.57;;;5.00;;
18592;SDS011;9426;54.118;17.948;2023-02-01T18:18:34;18.23;;;4.00;;
18592;SDS011;9426;54.118;17.948;2023-02-01T18:23:59;19.40;;;4.07;;
18592;SDS011;9426;54.118;17.948;2023-02-01T18:29:25;19.57;;;3.07;;
18592;SDS011;9426;54.118;17.948;2023-02-01T18:34:49;21.83;;;3.37;;
18592;SDS011;9426;54.118;17.948;2023-02-01T18:40:13;14.07;;;3.00;;
18592;SDS011;9426;54.118;17.948;2023-02-01T18:45:47;18.80;;;2.97;;
18592;SDS011;9426;54.118;17.948;2023-02-01T18:51:11;10.73;;;2.40;;
18592;SDS011;9426;54.118;17.948;2023-02-01T18:56:40;15.87;;;2.63;;
18592;SDS011;9426;54.118;17.948;2023-02-01T19:02:07;12.60;;;2.80;;
18592;SDS011;9426;54.118;17.948;2023-02-01T19:07:37;7.83;;;2.13;;
18592;SDS011;9426;54.118;17.948;2023-02-01T19:13:03;10.80;;;2.07;;
18592;SDS011;9426;54.118;17.948;2023-02-01T19:18:31;9.53;;;2.53;;
18592;SDS011;9426;54.118;17.948;2023-02-01T19:24:00;9.47;;;2.10;;
18592;SDS011;9426;54.118;17.948;2023-02-01T19:29:26;8.47;;;1.77;;
18592;SDS011;9426;54.118;17.948;2023-02-01T19:34:52;15.90;;;2.33;;
18592;SDS011;9426;54.118;17.948;2023-02-01T19:40:18;9.97;;;2.70;;
18592;SDS011;9426;54.118;17.948;2023-02-01T19:45:42;7.23;;;2.37;;
18592;SDS011;9426;54.118;17.948;2023-02-01T19:51:10;8.17;;;2.53;;
18592;SDS011;9426;54.118;17.948;2023-02-01T19:56:34;12.07;;;2.33;;
18592;SDS011;9426;54.118;17.948;2023-02-01T20:01:59;9.03;;;2.40;;
18592;SDS011;9426;54.118;17.948;2023-02-01T20:07:27;15.43;;;2.70;;
18592;SDS011;9426;54.118;17.948;2023-02-01T20:12:52;11.63;;;2.97;;
18592;SDS011;9426;54.118;17.948;2023-02-01T20:18:16;10.77;;;2.80;;
18592;SDS011;9426;54.118;17.948;2023-02-01T20:23:42;11.93;;;3.30;;
18592;SDS011;9426;54.118;17.948;2023-02-01T20:29:08;9.00;;;3.13;;
18592;SDS011;9426;54.118;17.948;2023-02-01T20:34:33;17.67;;;3.50;;
18592;SDS011;9426;54.118;17.948;2023-02-01T20:40:00;7.80;;;2.70;;
18592;SDS011;9426;54.118;17.948;2023-02-01T20:45:23;9.57;;;2.73;;
18592;SDS011;9426;54.118;17.948;2023-02-01T20:50:51;12.03;;;2.90;;
18592;SDS011;9426;54.118;17.948;2023-02-01T20:56:18;8.60;;;2.57;;
18592;SDS011;9426;54.118;17.948;2023-02-01T21:01:41;9.53;;;2.40;;
18592;SDS011;9426;54.118;17.948;2023-02-01T21:07:13;11.57;;;2.70;;
18592;SDS011;9426;54.118;17.948;2023-02-01T21:12:38;8.90;;;2.40;;
18592;SDS011;9426;54.118;17.948;2023-02-01T21:18:03;8.57;;;2.33;;
18592;SDS011;9426;54.118;17.948;2023-02-01T21:23:30;8.30;;;2.50;;
18592;SDS011;9426;54.118;17.948;2023-02-01T21:28:55;10.17;;;2.60;;
18592;SDS011;9426;54.118;17.948;2023-02-01T21:34:19;6.53;;;2.03;;
18592;SDS011;9426;54.118;17.948;2023-02-01T21:39:43;6.47;;;2.00;;
18592;SDS011;9426;54.118;17.948;2023-02-01T21:45:08;3.23;;;1.07;;
18592;SDS011;9426;54.118;17.948;2023-02-01T21:50:33;8.10;;;1.83;;
18592;SDS011;9426;54.118;17.948;2023-02-01T21:55:57;2.00;;;1.00;;
18592;SDS011;9426;54.118;17.948;2023-02-01T22:01:22;4.20;;;2.47;;
18592;SDS011;9426;54.118;17.948;2023-02-01T22:06:46;7.90;;;3.70;;
18592;SDS011;9426;54.118;17.948;2023-02-01T22:12:10;3.67;;;1.80;;
18592;SDS011;9426;54.118;17.948;2023-02-01T22:17:36;2.17;;;1.50;;
18592;SDS011;9426;54.118;17.948;2023-02-01T22:23:00;3.43;;;1.20;;
18592;SDS011;9426;54.118;17.948;2023-02-01T22:28:24;3.73;;;1.30;;
18592;SDS011;9426;54.118;17.948;2023-02-01T22:33:49;4.50;;;1.50;;
18592;SDS011;9426;54.118;17.948;2023-02-01T22:39:13;2.70;;;1.50;;
18592;SDS011;9426;54.118;17.948;2023-02-01T22:44:37;9.00;;;1.57;;
18592;SDS011;9426;54.118;17.948;2023-02-01T22:50:03;14.60;;;2.30;;
18592;SDS011;9426;54.118;17.948;2023-02-01T22:55:27;8.17;;;2.10;;
18592;SDS011;9426;54.118;17.948;2023-02-01T23:00:52;9.07;;;2.13;;
18592;SDS011;9426;54.118;17.948;2023-02-01T23:06:17;7.57;;;2.10;;
18592;SDS011;9426;54.118;17.948;2023-02-01T23:11:41;8.73;;;2.47;;
18592;SDS011;9426;54.118;17.948;2023-02-01T23:17:05;15.90;;;2.77;;
18592;SDS011;9426;54.118;17.948;2023-02-01T23:22:30;22.00;;;3.30;;
18592;SDS011;9426;54.118;17.948;2023-02-01T23:27:54;20.60;;;3.57;;
18592;SDS011;9426;54.118;17.948;2023-02-01T23:33:20;26.87;;;3.87;;
18592;SDS011;9426;54.118;17.948;2023-02-01T23:38:45;20.93;;;3.67;;
18592;SDS011;9426;54.118;17.948;2023-02-01T23:44:10;21.53;;;4.10;;
18592;SDS011;9426;54.118;17.948;2023-02-01T23:49:33;29.43;;;4.40;;
18592;SDS011;9426;54.118;17.948;2023-02-01T23:54:59;26.07;;;3.97;;
